createdAt,value
2024-05-09T00:00:43.046Z,102459.75
2024-05-09T00:03:11.623Z,102453.22
2024-05-09T00:05:45.630Z,102445.59
2024-05-09T00:08:13.138Z,102448.88
2024-05-09T00:10:41.067Z,102445.59
2024-05-09T00:13:10.233Z,102446.09
2024-05-09T00:15:38.218Z,102442.28
2024-05-09T00:18:07.499Z,102446.63
2024-05-09T00:20:39.101Z,102440.91
2024-05-09T00:23:12.744Z,102442.28
2024-05-09T00:25:43.341Z,102439.88
2024-05-09T00:28:12.071Z,102437.44
2024-05-09T00:30:39.084Z,102448.63
2024-05-09T00:33:07.597Z,102430.94
2024-05-09T00:35:36.134Z,102434.75
2024-05-09T00:38:03.759Z,102436.66
2024-05-09T00:40:39.885Z,102424.69
2024-05-09T00:43:10.325Z,102423.91
2024-05-09T00:45:37.551Z,102432.34
2024-05-09T00:48:07.711Z,102420.91
2024-05-09T00:50:39.293Z,102423.34
2024-05-09T00:53:08.436Z,102428.81
2024-05-09T00:55:37.852Z,102426.91
2024-05-09T00:58:06.364Z,102427.97
2024-05-09T01:00:39.040Z,102422.56
2024-05-09T01:03:10.845Z,102423.13
2024-05-09T01:05:40.263Z,102417.13
2024-05-09T01:08:11.524Z,102420.94
2024-05-09T01:10:40.819Z,102413.31
2024-05-09T01:13:09.979Z,102415.47
2024-05-09T01:15:36.991Z,102410.53
2024-05-09T01:18:12.402Z,102415.75
2024-05-09T01:20:44.239Z,102407.81
2024-05-09T01:23:15.181Z,102403.47
2024-05-09T01:25:47.095Z,102408.94
2024-05-09T01:28:15.167Z,102407.59
2024-05-09T01:30:42.347Z,102409.22
2024-05-09T01:33:11.308Z,102416.84
2024-05-09T01:35:41.838Z,102407.81
2024-05-09T01:38:12.841Z,102403.47
2024-05-09T01:40:40.576Z,102404.28
2024-05-09T01:43:09.575Z,102396.41
2024-05-09T01:45:38.819Z,102391.53
2024-05-09T01:48:06.544Z,102393.16
2024-05-09T01:50:39.328Z,102388.53
2024-05-09T01:53:10.504Z,102389.34
2024-05-09T01:55:37.847Z,102386.06
2024-05-09T01:58:04.947Z,102387.13
2024-05-09T02:00:40.087Z,102383.56
2024-05-09T02:03:14.078Z,102385.50
2024-05-09T02:05:47.922Z,102384.16
2024-05-09T02:08:20.857Z,102383.38
2024-05-09T02:10:49.382Z,102385.56
2024-05-09T02:13:17.510Z,102385.06
2024-05-09T02:15:44.747Z,102390.25
2024-05-09T02:18:12.600Z,102386.41
2024-05-09T02:20:41.608Z,102387.81
2024-05-09T02:23:09.486Z,102398.47
2024-05-09T02:25:36.831Z,102389.44
2024-05-09T02:28:04.047Z,102394.91
2024-05-09T02:30:39.323Z,102394.63
2024-05-09T02:33:11.689Z,102387.56
2024-05-09T02:35:41.102Z,102389.47
2024-05-09T02:38:09.337Z,102391.13
2024-05-09T02:40:38.766Z,102397.66
2024-05-09T02:43:09.678Z,102396.84
2024-05-09T02:45:38.500Z,102397.38
2024-05-09T02:48:06.859Z,102392.47
2024-05-09T02:50:38.480Z,102394.41
2024-05-09T02:53:08.632Z,102393.59
2024-05-09T02:55:36.624Z,102390.34
2024-05-09T02:58:04.506Z,102393.91
2024-05-09T03:00:38.436Z,102388.97
2024-05-09T03:03:10.030Z,102394.16
2024-05-09T03:05:39.503Z,102390.88
2024-05-09T03:08:07.151Z,102388.09
2024-05-09T03:10:36.781Z,102396.25
2024-05-09T03:13:07.366Z,102389.91
2024-05-09T03:15:34.511Z,102382.75
2024-05-09T03:18:01.820Z,102387.56
2024-05-09T03:20:34.184Z,102383.38
2024-05-09T03:23:03.595Z,102380.53
2024-05-09T03:25:31.032Z,102384.56
2024-05-09T03:27:57.976Z,102382.66
2024-05-09T03:30:38.130Z,102381.84
2024-05-09T03:33:13.945Z,102382.47
2024-05-09T03:35:42.971Z,102390.19
2024-05-09T03:38:10.182Z,102382.00
2024-05-09T03:40:44.022Z,102387.41
2024-05-09T03:43:11.136Z,102385.72
2024-05-09T03:45:38.176Z,102391.94
2024-05-09T03:48:05.558Z,102390.69
2024-05-09T03:50:35.687Z,102388.16
2024-05-09T03:53:04.113Z,102383.75
2024-05-09T03:55:31.394Z,102388.34
2024-05-09T03:57:58.835Z,102377.06
2024-05-09T04:00:34.635Z,102377.06
2024-05-09T04:03:07.730Z,102377.34
2024-05-09T04:05:38.148Z,102381.97
2024-05-09T04:08:05.916Z,102379.78
2024-05-09T04:10:34.605Z,102363.91
2024-05-09T04:13:03.268Z,102367.34
2024-05-09T04:15:30.861Z,102375.22
2024-05-09T04:17:58.114Z,102373.44
2024-05-09T04:20:35.880Z,102372.00
2024-05-09T04:23:07.518Z,102372.16
2024-05-09T04:25:35.272Z,102371.53
2024-05-09T04:28:02.309Z,102364.00
2024-05-09T04:30:37.124Z,102370.97
2024-05-09T04:33:09.115Z,102369.53
2024-05-09T04:35:38.559Z,102369.13
2024-05-09T04:38:06.380Z,102365.31
2024-05-09T04:40:36.215Z,102366.28
2024-05-09T04:43:05.913Z,102370.06
2024-05-09T04:45:33.326Z,102376.19
2024-05-09T04:48:01.032Z,102376.06
2024-05-09T04:50:36.004Z,102372.13
2024-05-09T04:53:10.344Z,102369.66
2024-05-09T04:55:39.424Z,102370.53
2024-05-09T04:58:08.627Z,102374.16
2024-05-09T05:00:37.996Z,102379.38
2024-05-09T05:03:08.486Z,102382.97
2024-05-09T05:05:43.754Z,102382.25
2024-05-09T05:08:13.031Z,102378.84
2024-05-09T05:10:41.035Z,102380.47
2024-05-09T05:13:20.185Z,102381.06
2024-05-09T05:15:50.012Z,102377.09
2024-05-09T05:18:17.721Z,102383.13
2024-05-09T05:20:45.242Z,102382.09
2024-05-09T05:23:13.789Z,102377.81
2024-05-09T05:25:44.109Z,102377.41
2024-05-09T05:28:11.430Z,102373.34
2024-05-09T05:30:39.047Z,102385.56
2024-05-09T05:33:07.377Z,102383.91
2024-05-09T05:35:34.930Z,102384.56
2024-05-09T05:38:06.584Z,102380.56
2024-05-09T05:40:37.218Z,102383.53
2024-05-09T05:43:15.679Z,102385.06
2024-05-09T05:45:43.641Z,102385.59
2024-05-09T05:48:11.016Z,102375.84
2024-05-09T05:50:38.876Z,102387.59
2024-05-09T05:53:07.909Z,102383.19
2024-05-09T05:55:40.735Z,102379.81
2024-05-09T05:58:15.064Z,102381.84
2024-05-09T06:00:43.013Z,102383.91
2024-05-09T06:03:12.623Z,102384.69
2024-05-09T06:05:40.955Z,102382.75
2024-05-09T06:08:11.169Z,102371.41
2024-05-09T06:10:40.562Z,102381.47
2024-05-09T06:13:12.571Z,102369.00
2024-05-09T06:15:41.130Z,102379.00
2024-05-09T06:18:09.671Z,102386.16
2024-05-09T06:20:39.602Z,102382.56
2024-05-09T06:23:07.800Z,102378.50
2024-05-09T06:25:36.276Z,102373.50
2024-05-09T06:28:03.820Z,102376.78
2024-05-09T06:30:38.572Z,102374.38
2024-05-09T06:33:10.228Z,102374.00
2024-05-09T06:35:38.871Z,102367.19
2024-05-09T06:38:09.226Z,102372.94
2024-05-09T06:40:39.910Z,102378.13
2024-05-09T06:43:17.426Z,102379.13
2024-05-09T06:45:52.638Z,102373.44
2024-05-09T06:48:21.170Z,102368.31
2024-05-09T06:50:49.248Z,102377.91
2024-05-09T06:53:17.588Z,102376.22
2024-05-09T06:55:44.938Z,102383.34
2024-05-09T06:58:12.252Z,102376.88
2024-05-09T07:00:41.359Z,102380.47
2024-05-09T07:03:16.547Z,102378.38
2024-05-09T07:05:47.332Z,102386.50
2024-05-09T07:08:16.039Z,102385.22
2024-05-09T07:10:44.093Z,102389.09
2024-05-09T07:13:12.280Z,102385.53
2024-05-09T07:15:40.407Z,102385.22
2024-05-09T07:18:17.316Z,102389.44
2024-05-09T07:20:46.023Z,102399.84
2024-05-09T07:23:13.525Z,102394.75
2024-05-09T07:25:41.618Z,102409.53
2024-05-09T07:28:14.577Z,102411.84
2024-05-09T07:30:42.679Z,102414.13
2024-05-09T07:33:10.136Z,102408.59
2024-05-09T07:35:37.603Z,102397.88
2024-05-09T07:38:04.924Z,102407.31
2024-05-09T07:40:36.148Z,102402.06
2024-05-09T07:43:08.427Z,102412.09
2024-05-09T07:53:36.631Z,102407.25
2024-05-09T07:55:55.760Z,102402.72
2024-05-09T07:58:27.476Z,102398.69
2024-05-09T08:00:54.914Z,102406.66
2024-05-09T08:03:23.445Z,102397.38
2024-05-09T08:05:52.070Z,102400.63
2024-05-09T08:08:19.113Z,102395.75
2024-05-09T08:10:46.531Z,102398.97
2024-05-09T08:13:13.759Z,102385.63
2024-05-09T08:15:41.041Z,102383.38
2024-05-09T08:18:11.513Z,102383.50
2024-05-09T08:20:40.380Z,102385.63
2024-05-09T08:23:07.760Z,102393.09
2024-05-09T08:25:34.758Z,102388.25
2024-05-09T08:28:04.482Z,102390.88
2024-05-09T08:30:36.770Z,102389.22
2024-05-09T08:33:06.829Z,102378.00
2024-05-09T08:35:35.594Z,102385.38
2024-05-09T08:38:03.719Z,102376.88
2024-05-09T08:40:36.110Z,102390.72
2024-05-09T08:43:11.229Z,102385.94
2024-05-09T08:45:43.937Z,102386.53
2024-05-09T08:48:15.117Z,102392.66
2024-05-09T08:50:43.779Z,102391.00
2024-05-09T08:53:11.715Z,102387.78
2024-05-09T08:55:42.033Z,102389.28
2024-05-09T08:58:17.036Z,102391.09
2024-05-09T09:00:46.157Z,102385.00
2024-05-09T09:03:26.940Z,102385.34
2024-05-09T09:05:54.321Z,102380.22
2024-05-09T09:08:22.351Z,102377.78
2024-05-09T09:13:22.326Z,102389.41
2024-05-09T09:15:50.375Z,102383.44
2024-05-09T09:18:18.810Z,102383.78
2024-05-09T09:20:46.971Z,102377.28
2024-05-09T09:23:14.303Z,102374.88
2024-05-09T09:25:41.654Z,102368.13
2024-05-09T09:28:09.680Z,102369.38
2024-05-09T09:30:40.560Z,102362.91
2024-05-09T09:33:11.673Z,102363.78
2024-05-09T09:35:40.630Z,102369.25
2024-05-09T09:38:10.456Z,102371.78
2024-05-09T09:40:47.358Z,102366.91
2024-05-09T09:43:22.405Z,102360.78
2024-05-09T09:45:53.039Z,102358.91
2024-05-09T09:48:22.890Z,102366.91
2024-05-09T09:50:52.723Z,102371.03
2024-05-09T09:53:20.408Z,102364.78
2024-05-09T09:55:48.426Z,102361.28
2024-05-09T09:58:17.768Z,102361.28
2024-05-09T10:00:45.379Z,102359.66
2024-05-09T10:03:12.704Z,102360.94
2024-05-09T10:05:42.949Z,102358.38
2024-05-09T10:08:12.509Z,102352.03
2024-05-09T10:10:40.307Z,102358.03
2024-05-09T10:13:08.680Z,102355.03
2024-05-09T10:15:46.202Z,102356.09
2024-05-09T10:18:14.358Z,102357.81
2024-05-09T10:20:42.765Z,102357.09
2024-05-09T10:23:29.126Z,102357.34
2024-05-09T10:26:05.400Z,102353.75
2024-05-09T10:28:38.010Z,102354.81
2024-05-09T10:31:13.844Z,102348.34
2024-05-09T10:33:49.533Z,102347.13
2024-05-09T10:36:22.402Z,102355.56
2024-05-09T10:38:50.744Z,102349.44
2024-05-09T10:41:18.832Z,102347.31
2024-05-09T10:43:47.548Z,102343.03
2024-05-09T10:46:15.047Z,102340.69
2024-05-09T10:48:44.440Z,102336.34
2024-05-09T10:51:12.022Z,102330.72
2024-05-09T10:53:47.276Z,102331.72
2024-05-09T10:56:15.159Z,102339.06
2024-05-09T10:58:42.511Z,102331.66
2024-05-09T11:01:10.402Z,102346.53
2024-05-09T11:03:38.870Z,102344.00
2024-05-09T11:06:06.847Z,102343.28
2024-05-09T11:08:35.153Z,102342.69
2024-05-09T11:11:07.659Z,102336.97
2024-05-09T11:13:37.832Z,102344.94
2024-05-09T11:16:07.309Z,102345.78
2024-05-09T11:18:38.166Z,102341.06
2024-05-09T11:21:13.366Z,102332.94
2024-05-09T11:23:41.108Z,102334.25
2024-05-09T11:26:09.274Z,102338.13
2024-05-09T11:28:36.342Z,102333.44
2024-05-09T11:31:10.506Z,102318.84
2024-05-09T11:33:45.692Z,102327.72
2024-05-09T11:36:13.976Z,102329.75
2024-05-09T11:38:41.516Z,102317.59
2024-05-09T11:41:08.879Z,102322.19
2024-05-09T11:43:35.858Z,102320.88
2024-05-09T11:46:03.779Z,102316.53
2024-05-09T11:48:31.707Z,102311.00
2024-05-09T11:50:59.106Z,102315.19
2024-05-09T11:53:26.109Z,102309.69
2024-05-09T11:55:53.442Z,102309.59
2024-05-09T11:58:22.924Z,102308.44
2024-05-09T12:00:50.324Z,102297.50
2024-05-09T12:03:17.721Z,102289.56
2024-05-09T12:05:45.123Z,102287.84
2024-05-09T12:08:12.497Z,102294.72
2024-05-09T12:10:39.896Z,102290.44
2024-05-09T12:13:07.734Z,102284.25
2024-05-09T12:15:38.813Z,102294.13
2024-05-09T12:18:08.097Z,102284.16
2024-05-09T12:20:38.801Z,102283.03
2024-05-09T12:23:09.508Z,102281.28
2024-05-09T12:25:39.298Z,102277.16
2024-05-09T12:28:07.703Z,102277.69
2024-05-09T12:30:38.832Z,102279.00
2024-05-09T12:33:09.013Z,102270.38
2024-05-09T12:35:36.551Z,102257.13
2024-05-09T12:38:04.276Z,102249.13
2024-05-09T12:40:36.513Z,102258.94
2024-05-09T12:43:10.129Z,102260.47
2024-05-09T12:45:38.993Z,102261.72
2024-05-09T12:48:11.888Z,102262.97
2024-05-09T12:50:40.744Z,102249.84
2024-05-09T12:53:07.855Z,102248.38
2024-05-09T12:55:43.857Z,102244.16
2024-05-09T12:58:20.038Z,102240.69
2024-05-09T13:00:47.954Z,102246.22
2024-05-09T13:03:15.417Z,102255.13
2024-05-09T13:05:45.174Z,102242.94
2024-05-09T13:08:13.312Z,102255.94
2024-05-09T13:10:42.366Z,102246.34
2024-05-09T13:13:10.901Z,102253.53
2024-05-09T13:15:38.351Z,102257.63
2024-05-09T13:18:06.199Z,102253.09
2024-05-09T13:20:35.572Z,102254.22
2024-05-09T13:23:05.645Z,102259.69
2024-05-09T13:25:37.928Z,102253.81
2024-05-09T13:28:06.694Z,102253.06
2024-05-09T13:30:39.503Z,102251.66
2024-05-09T13:33:13.947Z,102249.75
2024-05-09T13:35:48.811Z,102254.03
2024-05-09T13:38:19.477Z,102254.41
2024-05-09T13:40:47.225Z,102249.88
2024-05-09T13:43:14.554Z,102253.63
2024-05-09T13:45:41.795Z,102252.19
2024-05-09T13:48:10.353Z,102253.69
2024-05-09T13:50:37.874Z,102250.97
2024-05-09T13:53:06.990Z,102245.50
2024-05-09T13:55:37.332Z,102250.34
2024-05-09T13:58:04.811Z,102236.94
2024-05-09T14:00:42.620Z,102243.94
2024-05-09T14:03:15.698Z,102238.13
2024-05-09T14:05:43.687Z,102245.34
2024-05-09T14:08:11.459Z,102239.19
2024-05-09T14:10:44.718Z,102237.81
2024-05-09T14:13:13.635Z,102234.56
2024-05-09T14:15:41.033Z,102233.22
2024-05-09T14:18:12.295Z,102235.91
2024-05-09T14:20:41.271Z,102230.22
2024-05-09T14:23:08.427Z,102224.09
2024-05-09T14:25:39.013Z,102218.28
2024-05-09T14:28:09.808Z,102212.03
2024-05-09T14:30:38.741Z,102211.47
2024-05-09T14:33:08.179Z,102216.88
2024-05-09T14:35:37.925Z,102204.63
2024-05-09T14:38:07.444Z,102202.00
2024-05-09T14:40:41.360Z,102204.56
2024-05-09T14:43:15.473Z,102201.97
2024-05-09T14:45:43.773Z,102199.91
2024-05-09T14:48:12.636Z,102205.97
2024-05-09T14:50:40.872Z,102202.53
2024-05-09T14:53:09.907Z,102190.28
2024-05-09T14:55:39.821Z,102184.66
2024-05-09T14:58:08.897Z,102189.56
2024-05-09T15:00:49.844Z,102192.59
2024-05-09T15:03:19.866Z,102195.84
2024-05-09T15:05:51.676Z,102202.84
2024-05-09T15:08:19.906Z,102192.09
2024-05-09T15:10:50.091Z,102183.91
2024-05-09T15:13:18.572Z,102187.34
2024-05-09T15:15:45.797Z,102189.47
2024-05-09T15:18:14.252Z,102189.47
2024-05-09T15:20:42.137Z,102183.06
2024-05-09T15:23:09.448Z,102181.75
2024-05-09T15:25:37.160Z,102173.09
2024-05-09T15:28:07.801Z,102174.03
2024-05-09T15:30:35.483Z,102170.63
2024-05-09T15:33:06.957Z,102165.16
2024-05-09T15:35:36.138Z,102170.91
2024-05-09T15:38:04.515Z,102170.16
2024-05-09T15:40:38.718Z,102163.94
2024-05-09T15:43:09.736Z,102155.81
2024-05-09T15:45:38.603Z,102156.00
2024-05-09T15:48:07.021Z,102153.44
2024-05-09T15:50:38.894Z,102150.22
2024-05-09T15:53:09.849Z,102150.97
2024-05-09T15:55:37.858Z,102165.66
2024-05-09T15:58:06.008Z,102162.31
2024-05-09T16:00:38.594Z,102163.41
2024-05-09T16:03:13.854Z,102157.47
2024-05-09T16:05:46.375Z,102154.59
2024-05-09T16:08:14.807Z,102155.56
2024-05-09T16:10:44.678Z,102154.00
2024-05-09T16:13:13.149Z,102142.06
2024-05-09T16:15:40.862Z,102146.25
2024-05-09T16:18:08.569Z,102143.63
2024-05-09T16:20:40.144Z,102142.78
2024-05-09T16:23:13.030Z,102134.59
2024-05-09T16:25:42.988Z,102135.41
2024-05-09T16:28:10.925Z,102145.00
2024-05-09T16:30:39.248Z,102135.50
2024-05-09T16:33:06.945Z,102129.94
2024-05-09T16:35:35.173Z,102126.19
2024-05-09T16:38:03.679Z,102135.13
2024-05-09T16:40:37.816Z,102129.94
2024-05-09T16:43:11.135Z,102125.50
2024-05-09T16:45:40.318Z,102114.56
2024-05-09T16:48:08.283Z,102110.66
2024-05-09T16:50:36.501Z,102118.88
2024-05-09T16:53:05.733Z,102105.22
2024-05-09T16:55:33.833Z,102106.06
2024-05-09T16:58:02.181Z,102096.50
2024-05-09T17:00:39.301Z,102098.09
2024-05-09T17:03:12.761Z,102092.31
2024-05-09T17:05:41.485Z,102093.69
2024-05-09T17:08:09.064Z,102086.03
2024-05-09T17:10:36.841Z,102089.63
2024-05-09T17:13:06.282Z,102094.94
2024-05-09T17:15:35.496Z,102084.53
2024-05-09T17:18:04.022Z,102075.78
2024-05-09T17:20:34.713Z,102087.53
2024-05-09T17:23:06.105Z,102080.16
2024-05-09T17:25:34.340Z,102077.50
2024-05-09T17:28:07.618Z,102085.28
2024-05-09T17:30:38.171Z,102089.44
2024-05-09T17:33:08.777Z,102088.00
2024-05-09T17:35:37.462Z,102083.09
2024-05-09T17:38:05.925Z,102088.16
2024-05-09T17:40:36.048Z,102090.31
2024-05-09T17:43:06.586Z,102084.88
2024-05-09T17:45:36.888Z,102088.03
2024-05-09T17:48:04.257Z,102086.25
2024-05-09T17:50:35.859Z,102081.94
2024-05-09T17:53:08.292Z,102076.91
2024-05-09T17:55:36.015Z,102075.56
2024-05-09T17:58:04.712Z,102082.31
2024-05-09T18:00:38.071Z,102090.06
2024-05-09T18:03:11.078Z,102084.06
2024-05-09T18:05:39.015Z,102082.25
2024-05-09T18:08:07.038Z,102078.31
2024-05-09T18:10:38.063Z,102076.97
2024-05-09T18:13:11.160Z,102082.91
2024-05-09T18:15:39.264Z,102080.59
2024-05-09T18:18:07.400Z,102085.50
2024-05-09T18:20:42.137Z,102079.75
2024-05-09T18:23:14.621Z,102082.81
2024-05-09T18:25:43.017Z,102078.66
2024-05-09T18:28:10.307Z,102077.41
2024-05-09T18:30:37.936Z,102080.09
2024-05-09T18:33:07.226Z,102084.25
2024-05-09T18:35:36.262Z,102078.94
2024-05-09T18:38:04.934Z,102079.47
2024-05-09T18:40:35.788Z,102077.38
2024-05-09T18:43:07.194Z,102082.09
2024-05-09T18:45:37.763Z,102083.31
2024-05-09T18:48:06.612Z,102082.59
2024-05-09T18:50:37.833Z,102074.66
2024-05-09T18:53:07.437Z,102077.84
2024-05-09T18:55:35.018Z,102086.97
2024-05-09T18:58:02.995Z,102083.75
2024-05-09T19:00:35.774Z,102085.56
2024-05-09T19:03:11.062Z,102081.53
2024-05-09T19:05:45.010Z,102089.69
2024-05-09T19:08:13.380Z,102087.97
2024-05-09T19:10:41.272Z,102084.25
2024-05-09T19:13:12.051Z,102090.00
2024-05-09T19:15:41.632Z,102082.84
2024-05-09T19:18:15.224Z,102081.28
2024-05-09T19:20:44.184Z,102082.31
2024-05-09T19:23:11.918Z,102081.81
2024-05-09T19:25:39.224Z,102082.38
2024-05-09T19:28:06.597Z,102083.69
2024-05-09T19:30:39.344Z,102083.53
2024-05-09T19:33:11.257Z,102086.97
2024-05-09T19:35:39.557Z,102085.41
2024-05-09T19:38:06.748Z,102086.41
2024-05-09T19:40:35.150Z,102082.56
2024-05-09T19:43:03.809Z,102085.38
2024-05-09T19:45:33.154Z,102079.72
2024-05-09T19:48:00.929Z,102073.09
2024-05-09T19:50:36.893Z,102078.00
2024-05-09T19:53:10.571Z,102079.00
2024-05-09T19:55:38.097Z,102079.53
2024-05-09T19:58:07.186Z,102079.59
2024-05-09T20:00:38.436Z,102088.38
2024-05-09T20:03:08.251Z,102089.03
2024-05-09T20:05:36.752Z,102085.00
2024-05-09T20:08:04.815Z,102081.78
2024-05-09T20:10:34.108Z,102074.19
2024-05-09T20:13:04.132Z,102062.56
2024-05-09T20:15:32.170Z,102069.69
2024-05-09T20:17:59.335Z,102077.66
2024-05-09T20:20:35.007Z,102074.63
2024-05-09T20:23:06.514Z,102074.47
2024-05-09T20:25:33.670Z,102075.28
2024-05-09T20:28:00.884Z,102078.44
2024-05-09T20:30:32.754Z,102086.38
2024-05-09T20:33:05.946Z,102084.28
2024-05-09T20:35:34.892Z,102079.41
2024-05-09T20:38:03.530Z,102077.78
2024-05-09T20:40:35.397Z,102073.25
2024-05-09T20:43:06.826Z,102076.16
2024-05-09T20:45:34.855Z,102069.50
2024-05-09T20:48:02.672Z,102078.75
2024-05-09T20:50:37.321Z,102081.50
2024-05-09T20:53:15.339Z,102081.16
2024-05-09T20:55:44.217Z,102078.56
2024-05-09T20:58:12.163Z,102076.28
2024-05-09T21:00:43.099Z,102076.44
2024-05-09T21:03:14.651Z,102067.66
2024-05-09T21:05:43.552Z,102074.94
2024-05-09T21:08:11.097Z,102072.19
2024-05-09T21:10:38.388Z,102074.59
2024-05-09T21:13:06.802Z,102064.53
2024-05-09T21:15:34.949Z,102068.25
2024-05-09T21:18:02.584Z,102070.00
2024-05-09T21:20:32.964Z,102071.47
2024-05-09T21:23:03.937Z,102072.09
2024-05-09T21:25:31.417Z,102068.19
2024-05-09T21:27:58.674Z,102070.75
2024-05-09T21:30:32.746Z,102077.72
2024-05-09T21:33:08.817Z,102068.78
2024-05-09T21:35:36.650Z,102070.06
2024-05-09T21:38:04.644Z,102068.38
2024-05-09T21:40:35.034Z,102069.50
2024-05-09T21:43:04.350Z,102075.25
2024-05-09T21:45:31.849Z,102083.34
2024-05-09T21:48:03.392Z,102077.03
2024-05-09T21:50:37.053Z,102082.97
2024-05-09T21:53:10.944Z,102078.25
2024-05-09T21:55:38.182Z,102091.75
2024-05-09T21:58:05.630Z,102091.06
2024-05-09T22:00:37.634Z,102088.75
2024-05-09T22:03:10.726Z,102091.94
2024-05-09T22:05:42.238Z,102087.88
2024-05-09T22:08:10.935Z,102085.28
2024-05-09T22:10:40.042Z,102081.19
2024-05-09T22:13:08.525Z,102086.69
2024-05-09T22:15:38.097Z,102077.75
2024-05-09T22:18:08.242Z,102082.13
2024-05-09T22:20:38.861Z,102082.75
2024-05-09T22:23:08.458Z,102081.75
2024-05-09T22:25:36.717Z,102085.50
2024-05-09T22:28:04.745Z,102086.31
2024-05-09T22:30:37.108Z,102094.84
2024-05-09T22:33:11.672Z,102100.13
2024-05-09T22:35:40.729Z,102092.66
2024-05-09T22:38:08.482Z,102091.34
2024-05-09T22:40:46.461Z,102089.84
2024-05-09T22:43:22.328Z,102087.50
2024-05-09T22:45:51.785Z,102086.59
2024-05-09T22:48:19.363Z,102093.41
2024-05-09T22:50:46.569Z,102090.28
2024-05-09T22:53:13.556Z,102085.72
2024-05-09T22:55:40.701Z,102091.00
2024-05-09T22:58:07.854Z,102083.59
2024-05-09T23:00:35.196Z,102070.69
2024-05-09T23:03:02.942Z,102075.66
2024-05-09T23:05:32.046Z,102069.16
2024-05-09T23:08:01.115Z,102072.22
2024-05-09T23:10:35.468Z,102067.84
2024-05-09T23:13:05.539Z,102078.50
2024-05-09T23:15:32.847Z,102081.38
2024-05-09T23:18:00.058Z,102079.72
2024-05-09T23:20:36.049Z,102075.47
2024-05-09T23:23:07.151Z,102067.69
2024-05-09T23:25:34.720Z,102077.84
2024-05-09T23:28:01.965Z,102072.94
2024-05-09T23:30:36.867Z,102080.56
2024-05-09T23:33:07.535Z,102087.66
2024-05-09T23:35:34.812Z,102071.22
2024-05-09T23:38:01.861Z,102075.69
2024-05-09T23:42:59.024Z,102066.66
2024-05-09T23:45:26.150Z,102070.31
2024-05-09T23:47:53.529Z,102064.63
2024-05-09T23:50:26.526Z,102060.56
2024-05-09T23:53:00.218Z,102058.13
2024-05-09T23:55:28.491Z,102065.84
2024-05-09T23:57:55.956Z,102059.84
